sensor_id;sensor_type;location;lat;lon;timestamp;P1;durP1;ratioP1;P2;durP2;ratioP2
10335;SDS011;5213;53.548;9.930;2022-12-07T00:00:00;17.40;;;12.77;;
10335;SDS011;5213;53.548;9.930;2022-12-07T00:02:26;15.95;;;12.40;;
10335;SDS011;5213;53.548;9.930;2022-12-07T00:04:52;15.65;;;12.88;;
10335;SDS011;5213;53.548;9.930;2022-12-07T00:07:19;16.67;;;12.50;;
10335;SDS011;5213;53.548;9.930;2022-12-07T00:09:45;16.38;;;12.45;;
10335;SDS011;5213;53.548;9.930;2022-12-07T00:12:11;15.07;;;12.20;;
10335;SDS011;5213;53.548;9.930;2022-12-07T00:14:37;16.00;;;12.27;;
10335;SDS011;5213;53.548;9.930;2022-12-07T00:17:03;14.48;;;11.73;;
10335;SDS011;5213;53.548;9.930;2022-12-07T00:19:29;14.98;;;12.27;;
10335;SDS011;5213;53.548;9.930;2022-12-07T00:21:55;15.80;;;12.13;;
10335;SDS011;5213;53.548;9.930;2022-12-07T00:24:21;15.27;;;12.25;;
10335;SDS011;5213;53.548;9.930;2022-12-07T00:26:47;14.27;;;11.55;;
10335;SDS011;5213;53.548;9.930;2022-12-07T00:31:39;16.50;;;12.10;;
10335;SDS011;5213;53.548;9.930;2022-12-07T00:34:06;15.63;;;12.43;;
10335;SDS011;5213;53.548;9.930;2022-12-07T00:36:32;13.63;;;10.88;;
10335;SDS011;5213;53.548;9.930;2022-12-07T00:38:59;15.27;;;11.20;;
10335;SDS011;5213;53.548;9.930;2022-12-07T00:41:28;18.30;;;11.07;;
10335;SDS011;5213;53.548;9.930;2022-12-07T00:43:54;14.43;;;11.13;;
10335;SDS011;5213;53.548;9.930;2022-12-07T00:46:21;13.57;;;10.88;;
10335;SDS011;5213;53.548;9.930;2022-12-07T00:48:47;14.57;;;10.75;;
10335;SDS011;5213;53.548;9.930;2022-12-07T00:51:14;15.70;;;10.65;;
10335;SDS011;5213;53.548;9.930;2022-12-07T00:53:40;13.68;;;10.73;;
10335;SDS011;5213;53.548;9.930;2022-12-07T00:56:07;12.70;;;10.20;;
10335;SDS011;5213;53.548;9.930;2022-12-07T00:58:33;12.52;;;9.88;;
10335;SDS011;5213;53.548;9.930;2022-12-07T01:01:00;12.95;;;9.70;;
10335;SDS011;5213;53.548;9.930;2022-12-07T01:03:27;14.18;;;9.38;;
10335;SDS011;5213;53.548;9.930;2022-12-07T01:05:54;12.52;;;9.23;;
10335;SDS011;5213;53.548;9.930;2022-12-07T01:08:21;11.95;;;8.90;;
10335;SDS011;5213;53.548;9.930;2022-12-07T01:10:47;12.23;;;9.98;;
10335;SDS011;5213;53.548;9.930;2022-12-07T01:13:14;11.52;;;9.15;;
10335;SDS011;5213;53.548;9.930;2022-12-07T01:15:41;13.60;;;9.57;;
10335;SDS011;5213;53.548;9.930;2022-12-07T01:18:07;13.90;;;9.73;;
10335;SDS011;5213;53.548;9.930;2022-12-07T01:20:33;13.57;;;9.27;;
10335;SDS011;5213;53.548;9.930;2022-12-07T01:22:59;12.30;;;9.02;;
10335;SDS011;5213;53.548;9.930;2022-12-07T01:25:25;12.35;;;9.60;;
10335;SDS011;5213;53.548;9.930;2022-12-07T01:27:51;12.60;;;9.05;;
10335;SDS011;5213;53.548;9.930;2022-12-07T01:30:17;14.02;;;8.95;;
10335;SDS011;5213;53.548;9.930;2022-12-07T01:32:43;12.82;;;9.40;;
10335;SDS011;5213;53.548;9.930;2022-12-07T01:35:09;13.43;;;9.20;;
10335;SDS011;5213;53.548;9.930;2022-12-07T01:37:36;13.30;;;9.52;;
10335;SDS011;5213;53.548;9.930;2022-12-07T01:40:03;11.55;;;8.55;;
10335;SDS011;5213;53.548;9.930;2022-12-07T01:42:29;12.68;;;9.38;;
10335;SDS011;5213;53.548;9.930;2022-12-07T01:47:57;11.88;;;9.50;;
10335;SDS011;5213;53.548;9.930;2022-12-07T01:50:24;11.25;;;8.68;;
10335;SDS011;5213;53.548;9.930;2022-12-07T01:52:51;12.88;;;9.43;;
10335;SDS011;5213;53.548;9.930;2022-12-07T01:55:18;12.18;;;9.05;;
10335;SDS011;5213;53.548;9.930;2022-12-07T01:57:45;12.63;;;8.35;;
10335;SDS011;5213;53.548;9.930;2022-12-07T02:00:13;11.45;;;8.70;;
10335;SDS011;5213;53.548;9.930;2022-12-07T02:02:44;15.40;;;9.07;;
10335;SDS011;5213;53.548;9.930;2022-12-07T02:05:11;10.93;;;8.23;;
10335;SDS011;5213;53.548;9.930;2022-12-07T02:07:39;14.40;;;9.13;;
10335;SDS011;5213;53.548;9.930;2022-12-07T02:10:39;10.80;;;8.70;;
10335;SDS011;5213;53.548;9.930;2022-12-07T02:25:57;11.52;;;8.02;;
10335;SDS011;5213;53.548;9.930;2022-12-07T02:28:28;12.02;;;8.25;;
10335;SDS011;5213;53.548;9.930;2022-12-07T02:30:55;12.98;;;7.57;;
10335;SDS011;5213;53.548;9.930;2022-12-07T02:33:26;12.57;;;7.65;;
10335;SDS011;5213;53.548;9.930;2022-12-07T02:36:01;10.38;;;7.18;;
10335;SDS011;5213;53.548;9.930;2022-12-07T02:40:57;10.90;;;6.10;;
10335;SDS011;5213;53.548;9.930;2022-12-07T02:43:28;9.35;;;5.75;;
10335;SDS011;5213;53.548;9.930;2022-12-07T02:45:56;10.23;;;5.57;;
10335;SDS011;5213;53.548;9.930;2022-12-07T02:48:23;8.23;;;5.35;;
10335;SDS011;5213;53.548;9.930;2022-12-07T02:50:51;8.82;;;5.00;;
10335;SDS011;5213;53.548;9.930;2022-12-07T02:55:56;5.63;;;4.10;;
10335;SDS011;5213;53.548;9.930;2022-12-07T03:01:26;4.20;;;3.33;;
10335;SDS011;5213;53.548;9.930;2022-12-07T03:03:40;6.88;;;3.35;;
10335;SDS011;5213;53.548;9.930;2022-12-07T03:06:23;4.88;;;3.28;;
10335;SDS011;5213;53.548;9.930;2022-12-07T03:08:57;7.13;;;3.58;;
10335;SDS011;5213;53.548;9.930;2022-12-07T03:11:46;6.00;;;3.40;;
10335;SDS011;5213;53.548;9.930;2022-12-07T03:16:37;5.43;;;2.90;;
10335;SDS011;5213;53.548;9.930;2022-12-07T03:19:10;4.88;;;3.00;;
10335;SDS011;5213;53.548;9.930;2022-12-07T03:21:41;5.53;;;2.85;;
10335;SDS011;5213;53.548;9.930;2022-12-07T03:24:09;5.28;;;2.83;;
10335;SDS011;5213;53.548;9.930;2022-12-07T03:26:38;4.90;;;2.58;;
10335;SDS011;5213;53.548;9.930;2022-12-07T03:29:17;5.07;;;2.50;;
10335;SDS011;5213;53.548;9.930;2022-12-07T03:31:47;4.20;;;2.78;;
10335;SDS011;5213;53.548;9.930;2022-12-07T03:34:15;4.57;;;2.47;;
10335;SDS011;5213;53.548;9.930;2022-12-07T03:36:51;3.58;;;2.67;;
10335;SDS011;5213;53.548;9.930;2022-12-07T03:39:35;4.45;;;2.60;;
10335;SDS011;5213;53.548;9.930;2022-12-07T03:42:03;4.80;;;2.72;;
10335;SDS011;5213;53.548;9.930;2022-12-07T03:44:31;6.82;;;2.47;;
10335;SDS011;5213;53.548;9.930;2022-12-07T03:49:49;5.72;;;2.47;;
10335;SDS011;5213;53.548;9.930;2022-12-07T03:52:34;4.72;;;2.35;;
10335;SDS011;5213;53.548;9.930;2022-12-07T03:55:08;6.05;;;2.60;;
10335;SDS011;5213;53.548;9.930;2022-12-07T03:57:34;3.42;;;2.20;;
10335;SDS011;5213;53.548;9.930;2022-12-07T04:00:03;4.43;;;2.00;;
10335;SDS011;5213;53.548;9.930;2022-12-07T04:02:30;4.15;;;2.08;;
10335;SDS011;5213;53.548;9.930;2022-12-07T04:04:56;4.53;;;2.08;;
10335;SDS011;5213;53.548;9.930;2022-12-07T04:07:22;2.45;;;2.10;;
10335;SDS011;5213;53.548;9.930;2022-12-07T04:09:49;5.65;;;2.50;;
10335;SDS011;5213;53.548;9.930;2022-12-07T04:12:15;3.45;;;2.10;;
10335;SDS011;5213;53.548;9.930;2022-12-07T04:14:41;3.28;;;2.25;;
10335;SDS011;5213;53.548;9.930;2022-12-07T04:17:08;2.97;;;2.30;;
10335;SDS011;5213;53.548;9.930;2022-12-07T04:19:34;3.72;;;2.22;;
10335;SDS011;5213;53.548;9.930;2022-12-07T04:22:01;3.88;;;2.30;;
10335;SDS011;5213;53.548;9.930;2022-12-07T04:24:27;3.92;;;2.33;;
10335;SDS011;5213;53.548;9.930;2022-12-07T04:26:54;5.03;;;2.88;;
10335;SDS011;5213;53.548;9.930;2022-12-07T04:29:20;2.90;;;2.47;;
10335;SDS011;5213;53.548;9.930;2022-12-07T04:31:46;2.30;;;1.90;;
10335;SDS011;5213;53.548;9.930;2022-12-07T04:34:12;3.10;;;2.30;;
10335;SDS011;5213;53.548;9.930;2022-12-07T04:36:39;2.35;;;2.15;;
10335;SDS011;5213;53.548;9.930;2022-12-07T04:39:06;4.38;;;2.58;;
10335;SDS011;5213;53.548;9.930;2022-12-07T04:41:33;2.85;;;2.20;;
10335;SDS011;5213;53.548;9.930;2022-12-07T04:44:00;4.07;;;2.70;;
10335;SDS011;5213;53.548;9.930;2022-12-07T04:46:27;3.72;;;3.00;;
10335;SDS011;5213;53.548;9.930;2022-12-07T04:48:54;3.53;;;2.30;;
10335;SDS011;5213;53.548;9.930;2022-12-07T04:51:21;3.70;;;2.38;;
10335;SDS011;5213;53.548;9.930;2022-12-07T04:53:47;3.17;;;2.47;;
10335;SDS011;5213;53.548;9.930;2022-12-07T04:56:14;7.00;;;2.90;;
10335;SDS011;5213;53.548;9.930;2022-12-07T04:58:40;4.38;;;2.55;;
10335;SDS011;5213;53.548;9.930;2022-12-07T05:01:06;2.65;;;2.42;;
10335;SDS011;5213;53.548;9.930;2022-12-07T05:03:32;3.50;;;2.80;;
10335;SDS011;5213;53.548;9.930;2022-12-07T05:05:59;3.03;;;2.72;;
10335;SDS011;5213;53.548;9.930;2022-12-07T05:08:25;5.43;;;2.78;;
10335;SDS011;5213;53.548;9.930;2022-12-07T05:10:51;3.95;;;2.63;;
10335;SDS011;5213;53.548;9.930;2022-12-07T05:13:17;5.22;;;2.65;;
10335;SDS011;5213;53.548;9.930;2022-12-07T05:15:43;6.70;;;2.78;;
10335;SDS011;5213;53.548;9.930;2022-12-07T05:18:09;3.83;;;2.92;;
10335;SDS011;5213;53.548;9.930;2022-12-07T05:20:37;2.83;;;2.45;;
10335;SDS011;5213;53.548;9.930;2022-12-07T05:23:03;3.38;;;2.50;;
10335;SDS011;5213;53.548;9.930;2022-12-07T05:25:29;6.63;;;2.67;;
10335;SDS011;5213;53.548;9.930;2022-12-07T05:27:55;4.80;;;2.58;;
10335;SDS011;5213;53.548;9.930;2022-12-07T05:30:22;3.95;;;2.30;;
10335;SDS011;5213;53.548;9.930;2022-12-07T05:32:48;3.75;;;2.33;;
10335;SDS011;5213;53.548;9.930;2022-12-07T05:35:15;4.10;;;2.42;;
10335;SDS011;5213;53.548;9.930;2022-12-07T05:37:41;2.50;;;2.30;;
10335;SDS011;5213;53.548;9.930;2022-12-07T05:40:07;3.03;;;2.53;;
10335;SDS011;5213;53.548;9.930;2022-12-07T05:42:34;6.00;;;2.70;;
10335;SDS011;5213;53.548;9.930;2022-12-07T05:45:00;5.07;;;2.47;;
10335;SDS011;5213;53.548;9.930;2022-12-07T05:47:26;4.90;;;2.50;;
10335;SDS011;5213;53.548;9.930;2022-12-07T05:49:52;2.78;;;2.55;;
10335;SDS011;5213;53.548;9.930;2022-12-07T05:52:18;2.55;;;2.30;;
10335;SDS011;5213;53.548;9.930;2022-12-07T05:54:44;2.78;;;2.35;;
10335;SDS011;5213;53.548;9.930;2022-12-07T05:57:10;3.40;;;3.10;;
10335;SDS011;5213;53.548;9.930;2022-12-07T05:59:36;3.30;;;3.00;;
10335;SDS011;5213;53.548;9.930;2022-12-07T06:02:04;4.38;;;3.33;;
10335;SDS011;5213;53.548;9.930;2022-12-07T06:04:31;3.55;;;3.08;;
10335;SDS011;5213;53.548;9.930;2022-12-07T06:06:58;4.82;;;3.15;;
10335;SDS011;5213;53.548;9.930;2022-12-07T06:09:24;3.17;;;2.63;;
10335;SDS011;5213;53.548;9.930;2022-12-07T06:11:51;2.97;;;2.60;;
10335;SDS011;5213;53.548;9.930;2022-12-07T06:14:36;4.10;;;2.40;;
10335;SDS011;5213;53.548;9.930;2022-12-07T06:17:02;3.33;;;2.30;;
10335;SDS011;5213;53.548;9.930;2022-12-07T06:19:28;3.65;;;2.60;;
10335;SDS011;5213;53.548;9.930;2022-12-07T06:21:54;6.05;;;2.60;;
10335;SDS011;5213;53.548;9.930;2022-12-07T06:24:21;3.78;;;2.50;;
10335;SDS011;5213;53.548;9.930;2022-12-07T06:26:47;3.67;;;2.60;;
10335;SDS011;5213;53.548;9.930;2022-12-07T06:29:13;3.60;;;2.38;;
10335;SDS011;5213;53.548;9.930;2022-12-07T06:31:39;4.90;;;2.25;;
10335;SDS011;5213;53.548;9.930;2022-12-07T06:34:07;2.45;;;2.20;;
10335;SDS011;5213;53.548;9.930;2022-12-07T06:36:34;4.53;;;2.55;;
10335;SDS011;5213;53.548;9.930;2022-12-07T06:39:00;5.88;;;2.80;;
10335;SDS011;5213;53.548;9.930;2022-12-07T06:41:27;4.45;;;2.30;;
10335;SDS011;5213;53.548;9.930;2022-12-07T06:43:53;2.63;;;2.42;;
10335;SDS011;5213;53.548;9.930;2022-12-07T06:46:19;2.97;;;2.67;;
10335;SDS011;5213;53.548;9.930;2022-12-07T06:48:45;4.03;;;2.20;;
10335;SDS011;5213;53.548;9.930;2022-12-07T06:51:11;4.72;;;2.80;;
10335;SDS011;5213;53.548;9.930;2022-12-07T06:53:37;4.75;;;2.50;;
10335;SDS011;5213;53.548;9.930;2022-12-07T06:56:04;2.20;;;2.00;;
10335;SDS011;5213;53.548;9.930;2022-12-07T06:58:30;2.63;;;2.08;;
10335;SDS011;5213;53.548;9.930;2022-12-07T07:00:56;4.38;;;2.58;;
10335;SDS011;5213;53.548;9.930;2022-12-07T07:03:22;3.42;;;2.40;;
10335;SDS011;5213;53.548;9.930;2022-12-07T07:05:48;3.10;;;2.25;;
10335;SDS011;5213;53.548;9.930;2022-12-07T07:08:14;3.38;;;2.20;;
10335;SDS011;5213;53.548;9.930;2022-12-07T07:10:40;3.08;;;2.40;;
10335;SDS011;5213;53.548;9.930;2022-12-07T07:13:08;3.60;;;2.40;;
10335;SDS011;5213;53.548;9.930;2022-12-07T07:15:34;2.58;;;2.35;;
10335;SDS011;5213;53.548;9.930;2022-12-07T07:18:00;2.70;;;2.30;;
10335;SDS011;5213;53.548;9.930;2022-12-07T07:20:28;3.63;;;2.53;;
10335;SDS011;5213;53.548;9.930;2022-12-07T07:22:54;4.57;;;2.42;;
10335;SDS011;5213;53.548;9.930;2022-12-07T07:25:21;4.90;;;2.72;;
10335;SDS011;5213;53.548;9.930;2022-12-07T07:27:47;3.53;;;2.83;;
10335;SDS011;5213;53.548;9.930;2022-12-07T07:30:13;3.55;;;2.55;;
10335;SDS011;5213;53.548;9.930;2022-12-07T07:32:39;5.65;;;2.33;;
10335;SDS011;5213;53.548;9.930;2022-12-07T07:35:05;3.83;;;2.00;;
10335;SDS011;5213;53.548;9.930;2022-12-07T07:37:31;3.15;;;2.25;;
10335;SDS011;5213;53.548;9.930;2022-12-07T07:39:57;2.67;;;2.45;;
10335;SDS011;5213;53.548;9.930;2022-12-07T07:42:23;3.97;;;2.30;;
10335;SDS011;5213;53.548;9.930;2022-12-07T07:44:49;3.58;;;2.08;;
10335;SDS011;5213;53.548;9.930;2022-12-07T07:47:15;2.47;;;2.17;;
10335;SDS011;5213;53.548;9.930;2022-12-07T07:49:41;2.65;;;2.05;;
10335;SDS011;5213;53.548;9.930;2022-12-07T07:52:08;2.22;;;2.03;;
10335;SDS011;5213;53.548;9.930;2022-12-07T07:54:34;2.63;;;2.20;;
10335;SDS011;5213;53.548;9.930;2022-12-07T07:57:00;3.75;;;2.15;;
10335;SDS011;5213;53.548;9.930;2022-12-07T07:59:26;2.30;;;2.10;;
10335;SDS011;5213;53.548;9.930;2022-12-07T08:01:52;2.28;;;2.00;;
10335;SDS011;5213;53.548;9.930;2022-12-07T08:04:18;1.67;;;1.58;;
10335;SDS011;5213;53.548;9.930;2022-12-07T08:06:44;3.70;;;1.83;;
10335;SDS011;5213;53.548;9.930;2022-12-07T08:09:10;3.45;;;1.90;;
10335;SDS011;5213;53.548;9.930;2022-12-07T08:11:36;3.50;;;1.90;;
10335;SDS011;5213;53.548;9.930;2022-12-07T08:14:02;4.25;;;2.20;;
10335;SDS011;5213;53.548;9.930;2022-12-07T08:16:28;2.55;;;1.70;;
10335;SDS011;5213;53.548;9.930;2022-12-07T08:18:54;2.53;;;1.70;;
10335;SDS011;5213;53.548;9.930;2022-12-07T08:21:21;1.85;;;1.50;;
10335;SDS011;5213;53.548;9.930;2022-12-07T08:23:47;1.98;;;1.50;;
10335;SDS011;5213;53.548;9.930;2022-12-07T08:26:14;1.75;;;1.60;;
10335;SDS011;5213;53.548;9.930;2022-12-07T08:28:40;3.50;;;1.65;;
10335;SDS011;5213;53.548;9.930;2022-12-07T08:31:07;2.38;;;1.73;;
10335;SDS011;5213;53.548;9.930;2022-12-07T08:33:34;1.90;;;1.70;;
10335;SDS011;5213;53.548;9.930;2022-12-07T08:36:00;3.45;;;1.90;;
10335;SDS011;5213;53.548;9.930;2022-12-07T08:38:27;3.30;;;1.80;;
10335;SDS011;5213;53.548;9.930;2022-12-07T08:40:54;3.30;;;2.05;;
10335;SDS011;5213;53.548;9.930;2022-12-07T08:43:20;6.40;;;2.20;;
10335;SDS011;5213;53.548;9.930;2022-12-07T08:45:47;3.30;;;1.67;;
10335;SDS011;5213;53.548;9.930;2022-12-07T08:48:14;4.38;;;1.95;;
10335;SDS011;5213;53.548;9.930;2022-12-07T08:50:42;5.75;;;2.17;;
10335;SDS011;5213;53.548;9.930;2022-12-07T08:53:09;4.22;;;2.00;;
10335;SDS011;5213;53.548;9.930;2022-12-07T08:55:35;2.67;;;1.90;;
10335;SDS011;5213;53.548;9.930;2022-12-07T08:58:01;2.92;;;1.77;;
10335;SDS011;5213;53.548;9.930;2022-12-07T09:00:27;3.45;;;1.70;;
10335;SDS011;5213;53.548;9.930;2022-12-07T09:02:54;1.90;;;1.80;;
10335;SDS011;5213;53.548;9.930;2022-12-07T09:05:20;4.40;;;2.13;;
10335;SDS011;5213;53.548;9.930;2022-12-07T09:07:48;1.88;;;1.65;;
10335;SDS011;5213;53.548;9.930;2022-12-07T09:10:14;2.50;;;1.90;;
10335;SDS011;5213;53.548;9.930;2022-12-07T09:12:40;2.72;;;1.67;;
10335;SDS011;5213;53.548;9.930;2022-12-07T09:15:06;1.83;;;1.70;;
10335;SDS011;5213;53.548;9.930;2022-12-07T09:17:33;4.13;;;1.67;;
10335;SDS011;5213;53.548;9.930;2022-12-07T09:20:00;2.33;;;1.80;;
10335;SDS011;5213;53.548;9.930;2022-12-07T09:22:29;2.22;;;1.95;;
10335;SDS011;5213;53.548;9.930;2022-12-07T09:24:56;3.60;;;1.80;;
10335;SDS011;5213;53.548;9.930;2022-12-07T09:27:22;4.03;;;1.52;;
10335;SDS011;5213;53.548;9.930;2022-12-07T09:29:48;4.53;;;2.47;;
10335;SDS011;5213;53.548;9.930;2022-12-07T09:32:14;2.60;;;1.90;;
10335;SDS011;5213;53.548;9.930;2022-12-07T09:34:40;3.60;;;1.67;;
10335;SDS011;5213;53.548;9.930;2022-12-07T09:37:06;3.38;;;1.75;;
10335;SDS011;5213;53.548;9.930;2022-12-07T09:39:33;1.80;;;1.50;;
10335;SDS011;5213;53.548;9.930;2022-12-07T09:41:59;3.75;;;1.92;;
10335;SDS011;5213;53.548;9.930;2022-12-07T09:44:25;2.42;;;1.77;;
10335;SDS011;5213;53.548;9.930;2022-12-07T09:46:53;2.38;;;1.65;;
10335;SDS011;5213;53.548;9.930;2022-12-07T09:49:20;3.03;;;1.90;;
10335;SDS011;5213;53.548;9.930;2022-12-07T09:51:47;3.35;;;1.70;;
10335;SDS011;5213;53.548;9.930;2022-12-07T09:54:14;3.03;;;1.60;;
10335;SDS011;5213;53.548;9.930;2022-12-07T09:56:41;2.03;;;1.50;;
10335;SDS011;5213;53.548;9.930;2022-12-07T09:59:16;2.67;;;1.50;;
10335;SDS011;5213;53.548;9.930;2022-12-07T10:01:43;4.20;;;1.40;;
10335;SDS011;5213;53.548;9.930;2022-12-07T10:06:42;2.75;;;1.10;;
10335;SDS011;5213;53.548;9.930;2022-12-07T10:09:09;2.78;;;1.33;;
10335;SDS011;5213;53.548;9.930;2022-12-07T10:11:37;1.60;;;1.48;;
10335;SDS011;5213;53.548;9.930;2022-12-07T10:14:21;3.95;;;1.38;;
10335;SDS011;5213;53.548;9.930;2022-12-07T10:16:47;1.48;;;1.00;;
10335;SDS011;5213;53.548;9.930;2022-12-07T10:19:28;1.48;;;1.20;;
10335;SDS011;5213;53.548;9.930;2022-12-07T10:24:26;2.17;;;1.02;;
10335;SDS011;5213;53.548;9.930;2022-12-07T10:26:53;2.03;;;1.13;;
10335;SDS011;5213;53.548;9.930;2022-12-07T10:29:38;1.88;;;1.08;;
10335;SDS011;5213;53.548;9.930;2022-12-07T10:32:05;1.23;;;1.13;;
10335;SDS011;5213;53.548;9.930;2022-12-07T10:34:35;4.05;;;1.27;;
10335;SDS011;5213;53.548;9.930;2022-12-07T10:39:42;3.75;;;1.00;;
10335;SDS011;5213;53.548;9.930;2022-12-07T10:42:15;1.80;;;1.00;;
10335;SDS011;5213;53.548;9.930;2022-12-07T10:44:41;2.88;;;1.00;;
10335;SDS011;5213;53.548;9.930;2022-12-07T10:52:26;3.55;;;1.10;;
10335;SDS011;5213;53.548;9.930;2022-12-07T10:55:01;3.03;;;1.10;;
10335;SDS011;5213;53.548;9.930;2022-12-07T11:00:00;2.42;;;1.30;;
10335;SDS011;5213;53.548;9.930;2022-12-07T11:02:34;2.70;;;1.20;;
10335;SDS011;5213;53.548;9.930;2022-12-07T11:10:01;2.72;;;1.35;;
10335;SDS011;5213;53.548;9.930;2022-12-07T11:17:59;4.68;;;1.33;;
10335;SDS011;5213;53.548;9.930;2022-12-07T11:20:44;5.45;;;1.65;;
10335;SDS011;5213;53.548;9.930;2022-12-07T11:33:27;3.13;;;1.40;;
10335;SDS011;5213;53.548;9.930;2022-12-07T11:38:23;1.52;;;1.10;;
10335;SDS011;5213;53.548;9.930;2022-12-07T11:40:53;2.65;;;1.13;;
10335;SDS011;5213;53.548;9.930;2022-12-07T11:43:37;4.20;;;1.58;;
10335;SDS011;5213;53.548;9.930;2022-12-07T11:46:11;2.92;;;1.13;;
10335;SDS011;5213;53.548;9.930;2022-12-07T11:48:40;2.90;;;1.30;;
10335;SDS011;5213;53.548;9.930;2022-12-07T11:51:09;2.78;;;1.30;;
10335;SDS011;5213;53.548;9.930;2022-12-07T11:53:55;4.45;;;1.20;;
10335;SDS011;5213;53.548;9.930;2022-12-07T11:56:24;3.92;;;1.23;;
10335;SDS011;5213;53.548;9.930;2022-12-07T12:04:07;6.47;;;1.50;;
10335;SDS011;5213;53.548;9.930;2022-12-07T12:06:38;5.70;;;1.65;;
10335;SDS011;5213;53.548;9.930;2022-12-07T12:09:15;1.95;;;1.30;;
10335;SDS011;5213;53.548;9.930;2022-12-07T12:25:34;5.40;;;1.20;;
10335;SDS011;5213;53.548;9.930;2022-12-07T12:28:02;2.58;;;1.25;;
10335;SDS011;5213;53.548;9.930;2022-12-07T12:30:36;1.70;;;1.10;;
10335;SDS011;5213;53.548;9.930;2022-12-07T12:33:03;5.13;;;1.42;;
10335;SDS011;5213;53.548;9.930;2022-12-07T12:35:36;3.78;;;1.30;;
10335;SDS011;5213;53.548;9.930;2022-12-07T12:40:47;4.35;;;1.30;;
10335;SDS011;5213;53.548;9.930;2022-12-07T12:49:15;4.30;;;1.40;;
10335;SDS011;5213;53.548;9.930;2022-12-07T12:54:37;3.95;;;1.55;;
10335;SDS011;5213;53.548;9.930;2022-12-07T12:59:33;3.33;;;1.08;;
10335;SDS011;5213;53.548;9.930;2022-12-07T13:04:56;8.57;;;1.63;;
10335;SDS011;5213;53.548;9.930;2022-12-07T13:10:54;4.07;;;1.38;;
10335;SDS011;5213;53.548;9.930;2022-12-07T13:12:56;3.88;;;1.38;;
10335;SDS011;5213;53.548;9.930;2022-12-07T13:17:58;1.77;;;1.10;;
10335;SDS011;5213;53.548;9.930;2022-12-07T13:23:36;4.95;;;1.55;;
10335;SDS011;5213;53.548;9.930;2022-12-07T13:26:12;7.95;;;1.33;;
10335;SDS011;5213;53.548;9.930;2022-12-07T13:28:44;2.00;;;1.10;;
10335;SDS011;5213;53.548;9.930;2022-12-07T13:33:43;3.25;;;1.33;;
10335;SDS011;5213;53.548;9.930;2022-12-07T13:36:12;6.68;;;1.77;;
10335;SDS011;5213;53.548;9.930;2022-12-07T13:38:47;6.90;;;1.40;;
10335;SDS011;5213;53.548;9.930;2022-12-07T13:41:15;4.72;;;1.20;;
10335;SDS011;5213;53.548;9.930;2022-12-07T13:43:52;3.60;;;1.42;;
10335;SDS011;5213;53.548;9.930;2022-12-07T13:46:19;4.65;;;1.02;;
10335;SDS011;5213;53.548;9.930;2022-12-07T13:48:47;2.90;;;1.30;;
10335;SDS011;5213;53.548;9.930;2022-12-07T13:51:33;4.85;;;1.23;;
10335;SDS011;5213;53.548;9.930;2022-12-07T13:54:01;3.72;;;1.02;;
10335;SDS011;5213;53.548;9.930;2022-12-07T13:56:34;6.25;;;1.55;;
10335;SDS011;5213;53.548;9.930;2022-12-07T13:59:00;3.17;;;1.27;;
10335;SDS011;5213;53.548;9.930;2022-12-07T14:01:26;2.72;;;1.42;;
10335;SDS011;5213;53.548;9.930;2022-12-07T14:03:53;3.28;;;1.20;;
10335;SDS011;5213;53.548;9.930;2022-12-07T14:08:45;3.40;;;1.27;;
10335;SDS011;5213;53.548;9.930;2022-12-07T14:11:13;3.63;;;1.33;;
10335;SDS011;5213;53.548;9.930;2022-12-07T14:18:52;4.05;;;1.00;;
10335;SDS011;5213;53.548;9.930;2022-12-07T14:21:20;3.30;;;1.00;;
10335;SDS011;5213;53.548;9.930;2022-12-07T14:26:48;4.03;;;1.30;;
10335;SDS011;5213;53.548;9.930;2022-12-07T14:29:18;2.78;;;1.30;;
10335;SDS011;5213;53.548;9.930;2022-12-07T14:31:44;6.15;;;1.42;;
10335;SDS011;5213;53.548;9.930;2022-12-07T14:34:14;2.30;;;1.25;;
10335;SDS011;5213;53.548;9.930;2022-12-07T14:36:40;3.03;;;1.27;;
10335;SDS011;5213;53.548;9.930;2022-12-07T14:39:06;2.50;;;1.10;;
10335;SDS011;5213;53.548;9.930;2022-12-07T14:41:32;5.75;;;1.30;;
10335;SDS011;5213;53.548;9.930;2022-12-07T14:44:16;3.67;;;1.20;;
10335;SDS011;5213;53.548;9.930;2022-12-07T14:46:43;2.25;;;1.20;;
10335;SDS011;5213;53.548;9.930;2022-12-07T14:49:09;3.65;;;1.27;;
10335;SDS011;5213;53.548;9.930;2022-12-07T14:51:36;2.78;;;1.10;;
10335;SDS011;5213;53.548;9.930;2022-12-07T14:54:04;3.50;;;1.38;;
10335;SDS011;5213;53.548;9.930;2022-12-07T14:56:30;4.35;;;1.05;;
10335;SDS011;5213;53.548;9.930;2022-12-07T14:58:56;5.97;;;1.55;;
10335;SDS011;5213;53.548;9.930;2022-12-07T15:01:23;3.63;;;1.20;;
10335;SDS011;5213;53.548;9.930;2022-12-07T15:03:49;1.20;;;1.10;;
10335;SDS011;5213;53.548;9.930;2022-12-07T15:06:15;2.53;;;1.38;;
10335;SDS011;5213;53.548;9.930;2022-12-07T15:08:42;4.03;;;1.23;;
10335;SDS011;5213;53.548;9.930;2022-12-07T15:11:18;2.63;;;1.52;;
10335;SDS011;5213;53.548;9.930;2022-12-07T15:13:44;5.18;;;1.30;;
10335;SDS011;5213;53.548;9.930;2022-12-07T15:16:29;3.78;;;1.17;;
10335;SDS011;5213;53.548;9.930;2022-12-07T15:18:55;1.17;;;1.08;;
10335;SDS011;5213;53.548;9.930;2022-12-07T15:21:21;3.50;;;1.33;;
10335;SDS011;5213;53.548;9.930;2022-12-07T15:23:50;1.63;;;1.13;;
10335;SDS011;5213;53.548;9.930;2022-12-07T15:26:19;1.20;;;1.10;;
10335;SDS011;5213;53.548;9.930;2022-12-07T15:28:45;6.40;;;1.50;;
10335;SDS011;5213;53.548;9.930;2022-12-07T15:31:12;2.53;;;1.42;;
10335;SDS011;5213;53.548;9.930;2022-12-07T15:33:38;4.20;;;1.70;;
10335;SDS011;5213;53.548;9.930;2022-12-07T15:36:05;3.70;;;1.50;;
10335;SDS011;5213;53.548;9.930;2022-12-07T15:38:31;3.13;;;1.33;;
10335;SDS011;5213;53.548;9.930;2022-12-07T15:41:00;3.00;;;1.40;;
10335;SDS011;5213;53.548;9.930;2022-12-07T15:43:28;2.42;;;1.40;;
10335;SDS011;5213;53.548;9.930;2022-12-07T15:46:13;5.28;;;1.70;;
10335;SDS011;5213;53.548;9.930;2022-12-07T15:48:39;3.67;;;1.80;;
10335;SDS011;5213;53.548;9.930;2022-12-07T15:51:07;2.42;;;1.60;;
10335;SDS011;5213;53.548;9.930;2022-12-07T15:53:37;3.78;;;1.67;;
10335;SDS011;5213;53.548;9.930;2022-12-07T15:56:06;5.18;;;1.52;;
10335;SDS011;5213;53.548;9.930;2022-12-07T15:58:36;1.80;;;1.60;;
10335;SDS011;5213;53.548;9.930;2022-12-07T16:01:09;2.80;;;1.60;;
10335;SDS011;5213;53.548;9.930;2022-12-07T16:03:35;6.60;;;1.60;;
10335;SDS011;5213;53.548;9.930;2022-12-07T16:06:01;3.40;;;1.55;;
10335;SDS011;5213;53.548;9.930;2022-12-07T16:08:27;3.65;;;1.60;;
10335;SDS011;5213;53.548;9.930;2022-12-07T16:10:54;3.40;;;2.00;;
10335;SDS011;5213;53.548;9.930;2022-12-07T16:13:20;3.78;;;1.85;;
10335;SDS011;5213;53.548;9.930;2022-12-07T16:15:46;4.22;;;1.70;;
10335;SDS011;5213;53.548;9.930;2022-12-07T16:18:12;2.88;;;1.48;;
10335;SDS011;5213;53.548;9.930;2022-12-07T16:20:38;4.57;;;1.95;;
10335;SDS011;5213;53.548;9.930;2022-12-07T16:23:05;5.93;;;1.90;;
10335;SDS011;5213;53.548;9.930;2022-12-07T16:25:32;4.50;;;1.90;;
10335;SDS011;5213;53.548;9.930;2022-12-07T16:27:58;2.88;;;1.75;;
10335;SDS011;5213;53.548;9.930;2022-12-07T16:30:24;6.70;;;1.73;;
10335;SDS011;5213;53.548;9.930;2022-12-07T16:32:50;3.55;;;1.80;;
10335;SDS011;5213;53.548;9.930;2022-12-07T16:35:16;4.88;;;1.73;;
10335;SDS011;5213;53.548;9.930;2022-12-07T16:37:42;2.80;;;1.45;;
10335;SDS011;5213;53.548;9.930;2022-12-07T16:40:09;5.22;;;1.70;;
10335;SDS011;5213;53.548;9.930;2022-12-07T16:42:35;6.47;;;2.72;;
10335;SDS011;5213;53.548;9.930;2022-12-07T16:45:02;4.25;;;2.08;;
10335;SDS011;5213;53.548;9.930;2022-12-07T16:47:28;6.10;;;2.25;;
10335;SDS011;5213;53.548;9.930;2022-12-07T16:49:54;4.65;;;2.00;;
10335;SDS011;5213;53.548;9.930;2022-12-07T16:52:20;6.45;;;2.97;;
10335;SDS011;5213;53.548;9.930;2022-12-07T16:54:47;4.93;;;2.83;;
10335;SDS011;5213;53.548;9.930;2022-12-07T16:57:13;5.50;;;3.13;;
10335;SDS011;5213;53.548;9.930;2022-12-07T16:59:39;10.48;;;4.00;;
10335;SDS011;5213;53.548;9.930;2022-12-07T17:02:05;5.00;;;2.80;;
10335;SDS011;5213;53.548;9.930;2022-12-07T17:04:32;8.25;;;2.88;;
10335;SDS011;5213;53.548;9.930;2022-12-07T17:06:58;3.78;;;2.33;;
10335;SDS011;5213;53.548;9.930;2022-12-07T17:09:24;5.15;;;2.50;;